Time;durP1;ratioP1;P1;durP2;ratioP2;P2;SDS_P1;SDS_P2;PMS_P1;PMS_P2;Temp;Humidity;BMP_temperature;BMP_pressure;BME280_temperature;BME280_humidity;BME280_pressure;Samples;Min_cycle;Max_cycle;Signal;HPM_P1;HPM_P2
2021/04/17 00:01:50;;;;;;;8.05;5.97;;;8.00;99.90;;;;;;4368950;32;20153;-59
2021/04/17 00:04:16;;;;;;;9.88;5.95;;;8.00;99.90;;;;;;4356849;32;20092;-60
2021/04/17 00:06:43;;;;;;;10.82;6.00;;;7.90;99.90;;;;;;4368923;32;20445;-60
2021/04/17 00:09:15;;;;;;;10.82;6.37;;;7.80;99.90;;;;;;4343473;32;20084;-60
2021/04/17 00:11:43;;;;;;;7.70;4.95;;;7.80;99.90;;;;;;4354655;32;20091;-59
2021/04/17 00:14:14;;;;;;;8.80;6.53;;;7.70;99.90;;;;;;4352343;32;20078;-59
2021/04/17 00:16:40;;;;;;;10.95;6.90;;;7.70;99.90;;;;;;4360499;32;20495;-60
2021/04/17 00:19:07;;;;;;;12.13;7.37;;;7.70;99.90;;;;;;4356933;32;20096;-59
2021/04/17 00:21:33;;;;;;;11.75;6.90;;;7.70;99.90;;;;;;4368979;32;20162;-60
2021/04/17 00:24:00;;;;;;;11.48;7.07;;;7.60;99.90;;;;;;4368674;32;20073;-60
2021/04/17 00:26:26;;;;;;;14.25;7.50;;;7.70;99.90;;;;;;4381533;32;20057;-60
2021/04/17 00:28:53;;;;;;;11.45;6.90;;;7.70;99.90;;;;;;4368645;32;20085;-59
2021/04/17 00:31:19;;;;;;;12.10;7.25;;;7.70;99.90;;;;;;4356081;32;20084;-60
2021/04/17 00:33:45;;;;;;;10.27;7.18;;;7.60;99.90;;;;;;4368530;32;20158;-60
2021/04/17 00:36:12;;;;;;;10.80;7.12;;;7.60;99.90;;;;;;4393087;32;20502;-60
2021/04/17 00:38:38;;;;;;;10.85;6.18;;;7.50;99.90;;;;;;4368465;32;20322;-59
2021/04/17 00:41:04;;;;;;;10.48;6.97;;;7.40;99.90;;;;;;4381293;32;20069;-59
2021/04/17 00:43:30;;;;;;;10.43;5.97;;;7.30;99.90;;;;;;4382090;32;20091;-60
2021/04/17 00:45:57;;;;;;;10.30;6.22;;;7.30;99.90;;;;;;4397716;32;20144;-59
2021/04/17 00:48:23;;;;;;;11.32;6.47;;;7.30;99.90;;;;;;4394149;32;20094;-59
2021/04/17 00:50:49;;;;;;;11.52;6.12;;;7.20;99.90;;;;;;4367990;32;20080;-59
2021/04/17 00:53:16;;;;;;;7.87;5.78;;;7.20;99.90;;;;;;4355963;32;20161;-61
2021/04/17 00:55:42;;;;;;;8.00;5.32;;;7.20;99.90;;;;;;4367943;32;20243;-60
2021/04/17 00:58:08;;;;;;;9.23;5.72;;;7.20;99.90;;;;;;4368320;32;20145;-60
2021/04/17 01:00:36;;;;;;;11.20;6.10;;;7.20;99.90;;;;;;4367956;32;20073;-59
2021/04/17 01:03:17;;;;;;;7.90;5.32;;;7.20;99.90;;;;;;4381253;32;20073;-60
2021/04/17 01:08:34;;;;;;;8.32;5.05;;;7.10;99.90;;;;;;3857345;37;20054;-60
2021/04/17 01:11:07;;;;;;;8.07;5.25;;;7.10;99.90;;;;;;4393962;32;20595;-60
2021/04/17 01:13:34;;;;;;;7.78;5.28;;;7.00;99.90;;;;;;4390610;32;20157;-59
2021/04/17 01:16:01;;;;;;;12.07;5.97;;;7.00;99.90;;;;;;4377854;32;20144;-60
2021/04/17 01:18:27;;;;;;;9.80;5.43;;;7.00;99.90;;;;;;4391074;32;20062;-59
2021/04/17 01:20:55;;;;;;;9.80;5.10;;;7.00;99.90;;;;;;4391305;32;20089;-58
2021/04/17 01:23:42;;;;;;;9.15;4.80;;;6.90;99.90;;;;;;4390561;32;20516;-59
2021/04/17 01:26:11;;;;;;;10.68;6.25;;;7.00;99.90;;;;;;4391403;32;20077;-60
2021/04/17 01:28:40;;;;;;;7.90;5.15;;;6.80;99.90;;;;;;4390777;32;20137;-59
2021/04/17 01:31:07;;;;;;;7.85;5.30;;;6.90;99.90;;;;;;4375972;32;20092;-59
2021/04/17 01:33:36;;;;;;;12.77;4.95;;;6.80;99.90;;;;;;4351554;32;20080;-59
2021/04/17 01:36:03;;;;;;;8.60;5.00;;;6.90;99.90;;;;;;4365881;32;20100;-59
2021/04/17 01:38:48;;;;;;;8.55;4.95;;;6.80;99.90;;;;;;4376707;32;20146;-60
2021/04/17 01:41:24;;;;;;;7.05;4.55;;;6.70;99.90;;;;;;4365036;32;20073;-60
2021/04/17 01:43:52;;;;;;;7.85;4.32;;;6.80;99.90;;;;;;4375891;32;20082;-59
2021/04/17 01:46:22;;;;;;;8.43;4.43;;;6.80;99.90;;;;;;4350719;32;20070;-59
2021/04/17 01:48:55;;;;;;;7.65;4.65;;;6.80;99.90;;;;;;4363007;32;20074;-59
2021/04/17 01:51:21;;;;;;;10.15;4.30;;;6.70;99.90;;;;;;4387862;32;20097;-59
2021/04/17 01:53:47;;;;;;;7.70;5.20;;;6.70;99.90;;;;;;4362198;32;20098;-59
2021/04/17 01:56:13;;;;;;;7.97;5.20;;;6.80;99.90;;;;;;4375135;32;20153;-59
2021/04/17 01:58:41;;;;;;;10.15;5.37;;;6.60;99.90;;;;;;4350494;32;20074;-59
2021/04/17 02:01:07;;;;;;;8.55;5.80;;;6.60;99.90;;;;;;4375157;32;20223;-59
2021/04/17 02:03:34;;;;;;;9.50;5.07;;;6.60;99.90;;;;;;4375095;32;20524;-59
2021/04/17 02:06:00;;;;;;;10.93;6.50;;;6.70;99.90;;;;;;4386979;32;20058;-60
2021/04/17 02:08:26;;;;;;;13.00;6.50;;;6.70;99.90;;;;;;4362895;32;20543;-59
2021/04/17 02:10:53;;;;;;;9.68;4.65;;;6.50;99.90;;;;;;4350178;32;20535;-59
2021/04/17 02:13:19;;;;;;;12.45;5.07;;;6.60;99.90;;;;;;4387673;32;20173;-59
2021/04/17 02:15:45;;;;;;;7.18;4.12;;;6.60;99.90;;;;;;4374926;32;20070;-60
2021/04/17 02:18:18;;;;;;;6.80;4.20;;;6.60;99.90;;;;;;4358825;32;20216;-58
2021/04/17 02:21:11;;;;;;;4.70;3.12;;;6.60;99.90;;;;;;4377069;32;20516;-59
2021/04/17 02:23:37;;;;;;;5.28;3.50;;;6.60;99.90;;;;;;4344077;32;20074;-59
2021/04/17 02:26:04;;;;;;;5.50;3.40;;;6.70;99.90;;;;;;4364683;32;20065;-59
2021/04/17 02:28:30;;;;;;;5.32;3.33;;;6.70;99.90;;;;;;4339840;32;20089;-60
2021/04/17 02:30:57;;;;;;;10.25;3.17;;;6.70;99.90;;;;;;4339679;32;20456;-60
2021/04/17 02:33:23;;;;;;;7.28;3.33;;;6.60;99.90;;;;;;4364444;32;20174;-58
2021/04/17 02:35:50;;;;;;;6.72;3.50;;;6.60;99.90;;;;;;4363264;32;20088;-59
2021/04/17 02:38:17;;;;;;;5.72;3.47;;;6.50;99.90;;;;;;4366943;32;20175;-59
2021/04/17 02:40:43;;;;;;;8.80;3.75;;;6.50;99.90;;;;;;4379421;32;20126;-60
2021/04/17 02:43:09;;;;;;;7.75;3.53;;;6.50;99.90;;;;;;4379531;32;20076;-60
2021/04/17 02:45:36;;;;;;;7.28;4.00;;;6.40;99.90;;;;;;4354870;32;20089;-59
2021/04/17 02:48:02;;;;;;;7.43;3.47;;;6.50;99.90;;;;;;4367224;32;20089;-60
2021/04/17 02:50:29;;;;;;;9.70;3.62;;;6.50;99.90;;;;;;4366974;32;20581;-59
2021/04/17 02:52:55;;;;;;;7.95;3.72;;;6.50;99.90;;;;;;4378901;32;20093;-60
2021/04/17 02:55:21;;;;;;;5.10;3.20;;;6.50;99.90;;;;;;4379171;32;20507;-59
2021/04/17 02:57:48;;;;;;;7.95;3.70;;;6.60;99.90;;;;;;4391485;32;20069;-59
2021/04/17 03:00:18;;;;;;;4.93;3.35;;;6.60;99.90;;;;;;4354338;32;20058;-60
2021/04/17 03:02:44;;;;;;;7.47;3.37;;;6.60;99.90;;;;;;4367701;32;20065;-59
2021/04/17 03:05:11;;;;;;;8.38;3.30;;;6.60;99.90;;;;;;4356634;32;20432;-60
2021/04/17 03:07:37;;;;;;;5.78;3.45;;;6.70;99.90;;;;;;4357078;32;20070;-59
2021/04/17 03:10:06;;;;;;;5.15;2.92;;;6.70;99.90;;;;;;4367127;32;20153;-59
2021/04/17 03:12:32;;;;;;;8.77;3.80;;;6.80;99.90;;;;;;4379698;32;20519;-59
2021/04/17 03:14:58;;;;;;;6.60;3.30;;;6.80;99.90;;;;;;4388068;32;20066;-59
2021/04/17 03:17:24;;;;;;;5.30;3.10;;;6.80;99.90;;;;;;4364892;32;20139;-59
2021/04/17 03:19:50;;;;;;;4.55;3.22;;;6.90;99.90;;;;;;4351642;32;20069;-59
2021/04/17 03:22:17;;;;;;;5.70;3.60;;;6.80;99.90;;;;;;4376249;32;20062;-60
2021/04/17 03:24:44;;;;;;;6.05;3.47;;;6.90;99.90;;;;;;4363897;32;20062;-59
2021/04/17 03:27:10;;;;;;;6.12;3.20;;;7.00;99.90;;;;;;4363978;32;20146;-60
2021/04/17 03:29:36;;;;;;;4.68;2.90;;;7.00;99.90;;;;;;4363110;32;20085;-59
2021/04/17 03:32:03;;;;;;;5.12;3.20;;;7.10;99.90;;;;;;4363619;32;20097;-59
2021/04/17 03:34:29;;;;;;;7.55;3.12;;;7.30;99.90;;;;;;4370418;32;20082;-60
2021/04/17 03:36:55;;;;;;;7.28;3.33;;;7.40;99.90;;;;;;4354033;32;20063;-60
2021/04/17 03:39:22;;;;;;;5.62;2.90;;;7.40;99.90;;;;;;4366289;32;20164;-60
2021/04/17 03:41:48;;;;;;;5.85;3.42;;;7.50;99.90;;;;;;4366472;32;20065;-61
2021/04/17 03:44:14;;;;;;;6.80;3.60;;;7.50;99.90;;;;;;4391061;32;20112;-60
2021/04/17 03:46:40;;;;;;;6.55;3.40;;;7.60;99.90;;;;;;4366328;32;20105;-59
2021/04/17 03:49:06;;;;;;;6.95;3.62;;;7.70;99.90;;;;;;4378287;32;20072;-60
2021/04/17 03:51:33;;;;;;;8.05;3.72;;;7.70;99.90;;;;;;4390916;32;20078;-59
2021/04/17 03:53:59;;;;;;;4.93;3.25;;;7.80;99.90;;;;;;4354411;32;20081;-60
2021/04/17 03:56:25;;;;;;;6.80;4.00;;;7.90;99.90;;;;;;4353555;32;20159;-60
2021/04/17 03:58:51;;;;;;;6.62;4.10;;;7.80;99.90;;;;;;4366322;32;20069;-60
2021/04/17 04:01:18;;;;;;;9.38;4.50;;;7.90;99.90;;;;;;4390853;32;20085;-60
2021/04/17 04:03:44;;;;;;;9.73;4.43;;;8.00;99.90;;;;;;4378425;32;20066;-60
2021/04/17 04:06:10;;;;;;;6.03;3.92;;;8.00;99.90;;;;;;4378090;32;20449;-59
2021/04/17 04:08:36;;;;;;;6.12;4.20;;;8.10;99.90;;;;;;4377936;32;20078;-59
2021/04/17 04:11:02;;;;;;;7.57;4.15;;;8.30;99.90;;;;;;4390248;32;20069;-60
2021/04/17 04:13:29;;;;;;;8.45;4.05;;;8.50;99.90;;;;;;4387653;32;20160;-59
2021/04/17 04:15:55;;;;;;;9.98;4.05;;;8.60;99.90;;;;;;4350725;32;20073;-60
2021/04/17 04:18:21;;;;;;;7.03;4.55;;;8.70;99.90;;;;;;4350589;32;20504;-60
2021/04/17 04:20:47;;;;;;;7.82;4.35;;;8.80;99.90;;;;;;4375257;32;20578;-60
2021/04/17 04:23:13;;;;;;;5.60;4.30;;;8.90;99.90;;;;;;4363101;32;20070;-59
2021/04/17 04:25:39;;;;;;;8.05;4.55;;;9.00;99.90;;;;;;4362631;32;20114;-59
2021/04/17 04:28:06;;;;;;;9.25;3.62;;;9.00;99.90;;;;;;4338608;32;20104;-60
2021/04/17 04:30:32;;;;;;;6.03;3.70;;;9.20;99.90;;;;;;4377901;32;20078;-60
2021/04/17 04:32:58;;;;;;;8.25;4.90;;;9.30;99.90;;;;;;4352008;32;20081;-60
2021/04/17 04:35:24;;;;;;;6.47;3.72;;;9.40;99.90;;;;;;4371256;32;20081;-59
2021/04/17 04:37:51;;;;;;;7.12;3.60;;;9.60;99.90;;;;;;4366352;32;20061;-60
2021/04/17 04:40:17;;;;;;;5.15;3.15;;;9.70;99.90;;;;;;4351005;32;20090;-60
2021/04/17 04:42:43;;;;;;;9.90;4.10;;;9.80;99.90;;;;;;4350262;32;20073;-60
2021/04/17 04:45:11;;;;;;;8.43;4.03;;;10.00;99.90;;;;;;4362699;32;20591;-59
2021/04/17 04:47:37;;;;;;;8.82;4.65;;;10.00;99.90;;;;;;4375512;32;20465;-60
2021/04/17 04:50:08;;;;;;;9.60;4.80;;;10.80;99.90;;;;;;4350627;32;20483;-60
2021/04/17 04:52:34;;;;;;;9.07;4.15;;;11.70;95.20;;;;;;4339090;32;20545;-59
2021/04/17 04:55:01;;;;;;;9.48;4.20;;;12.30;93.80;;;;;;4363351;32;20089;-60
2021/04/17 04:57:27;;;;;;;8.93;4.47;;;12.30;93.20;;;;;;4350518;32;20164;-60
2021/04/17 04:59:53;;;;;;;9.18;3.80;;;12.40;92.50;;;;;;4362844;32;20142;-61
2021/04/17 05:02:20;;;;;;;6.65;3.25;;;12.80;91.50;;;;;;4362902;32;20078;-58
2021/04/17 05:04:46;;;;;;;3.83;2.25;;;12.70;90.90;;;;;;4350230;32;20094;-60
2021/04/17 05:07:12;;;;;;;5.60;2.70;;;12.50;91.10;;;;;;4349560;32;20084;-60
2021/04/17 05:09:39;;;;;;;4.57;2.70;;;13.10;87.70;;;;;;4375206;32;20161;-59
2021/04/17 05:12:06;;;;;;;6.07;2.83;;;12.90;88.70;;;;;;4350254;32;20092;-59
2021/04/17 05:14:32;;;;;;;6.28;3.35;;;13.30;86.90;;;;;;4362548;32;20127;-60
2021/04/17 05:16:58;;;;;;;6.18;2.90;;;13.20;85.20;;;;;;4337993;32;20077;-60
2021/04/17 05:19:25;;;;;;;6.72;2.67;;;13.50;81.80;;;;;;4350604;32;20504;-60
2021/04/17 05:21:52;;;;;;;5.05;2.90;;;13.10;82.80;;;;;;4362382;32;20084;-59
2021/04/17 05:24:18;;;;;;;6.70;3.10;;;13.30;79.40;;;;;;4361976;32;20661;-60
2021/04/17 05:26:44;;;;;;;6.30;2.20;;;13.50;79.40;;;;;;4338113;32;20082;-59
2021/04/17 05:29:11;;;;;;;3.15;2.20;;;13.70;76.10;;;;;;4362699;32;20071;-59
2021/04/17 05:31:37;;;;;;;4.25;2.12;;;13.50;77.00;;;;;;4337943;32;20538;-59
2021/04/17 05:34:05;;;;;;;6.55;2.47;;;13.50;75.40;;;;;;4366151;32;20075;-60
2021/04/17 05:36:32;;;;;;;13.60;3.30;;;13.80;74.30;;;;;;4362533;32;20156;-61
2021/04/17 05:38:58;;;;;;;6.68;2.87;;;14.00;73.50;;;;;;4350705;32;20063;-61
2021/04/17 05:41:28;;;;;;;7.25;3.10;;;13.80;71.00;;;;;;4362795;32;20080;-59
2021/04/17 05:43:54;;;;;;;4.87;2.87;;;13.70;71.80;;;;;;4371418;32;20094;-60
2021/04/17 05:46:20;;;;;;;7.07;2.72;;;13.30;71.20;;;;;;4362113;32;20066;-60
2021/04/17 05:48:46;;;;;;;9.35;3.35;;;13.60;71.70;;;;;;4384563;32;20105;-62
2021/04/17 05:51:12;;;;;;;4.22;3.00;;;13.90;69.80;;;;;;4350061;32;20497;-58
2021/04/17 05:53:39;;;;;;;4.60;2.65;;;14.10;67.70;;;;;;4352136;32;20180;-58
2021/04/17 05:56:06;;;;;;;3.78;2.60;;;14.20;68.70;;;;;;4354529;32;20078;-58
2021/04/17 05:58:32;;;;;;;7.05;3.10;;;14.30;67.50;;;;;;4353772;32;20078;-59
2021/04/17 06:00:58;;;;;;;4.90;3.25;;;14.70;67.90;;;;;;4340716;32;20078;-59
2021/04/17 06:03:27;;;;;;;5.40;2.85;;;14.30;66.90;;;;;;4377486;32;20082;-59
2021/04/17 06:05:55;;;;;;;5.45;2.90;;;14.20;64.40;;;;;;4377001;32;20494;-59
2021/04/17 06:08:21;;;;;;;4.30;2.95;;;14.50;65.60;;;;;;4364934;32;20078;-59
2021/04/17 06:10:47;;;;;;;4.43;2.55;;;14.10;64.30;;;;;;4364902;32;20074;-60
2021/04/17 06:13:14;;;;;;;7.55;3.40;;;14.10;65.30;;;;;;4340173;32;20518;-60
2021/04/17 06:15:40;;;;;;;7.37;3.60;;;14.40;64.50;;;;;;4364572;32;20505;-58
2021/04/17 06:18:07;;;;;;;7.45;3.42;;;14.30;63.20;;;;;;4376801;32;20532;-60
2021/04/17 06:20:33;;;;;;;6.50;4.10;;;13.60;67.20;;;;;;4364484;32;20085;-59
2021/04/17 06:22:59;;;;;;;7.70;3.83;;;13.50;69.00;;;;;;4352776;32;20074;-59
2021/04/17 06:25:25;;;;;;;8.55;4.12;;;13.90;67.40;;;;;;4376812;32;20145;-59
2021/04/17 06:27:52;;;;;;;7.37;4.55;;;13.80;66.80;;;;;;4378315;32;20575;-60
2021/04/17 06:30:18;;;;;;;10.95;4.95;;;13.80;68.70;;;;;;4352120;32;20153;-60
2021/04/17 06:32:44;;;;;;;9.35;4.00;;;13.90;66.80;;;;;;4351787;32;20093;-59
2021/04/17 06:35:12;;;;;;;7.28;4.87;;;13.70;66.80;;;;;;4372579;32;20093;-60
2021/04/17 06:37:38;;;;;;;14.30;4.00;;;14.00;64.80;;;;;;4364950;32;20074;-59
2021/04/17 06:40:05;;;;;;;6.65;3.60;;;14.20;65.30;;;;;;4376669;32;20085;-60
2021/04/17 06:42:32;;;;;;;9.63;4.10;;;14.10;65.30;;;;;;4377392;32;20069;-60
2021/04/17 06:44:59;;;;;;;8.13;3.20;;;14.40;66.70;;;;;;4352282;32;20442;-60
2021/04/17 06:47:25;;;;;;;7.07;4.32;;;14.50;64.50;;;;;;4351911;32;20452;-59
2021/04/17 06:49:52;;;;;;;6.95;3.58;;;14.30;62.60;;;;;;4340160;32;20165;-59
2021/04/17 06:52:18;;;;;;;7.30;3.87;;;14.40;62.60;;;;;;4340476;32;20058;-59
2021/04/17 06:54:46;;;;;;;7.07;3.65;;;14.80;61.90;;;;;;4352184;32;20153;-59
2021/04/17 06:57:12;;;;;;;9.73;3.72;;;14.60;61.40;;;;;;4352473;32;20499;-59
2021/04/17 06:59:39;;;;;;;4.90;2.60;;;14.60;61.30;;;;;;4352022;32;20069;-58
2021/04/17 07:02:05;;;;;;;5.80;3.62;;;15.10;61.00;;;;;;4352354;32;20481;-59
2021/04/17 07:04:31;;;;;;;5.50;3.12;;;14.70;59.80;;;;;;4364727;32;20148;-58
2021/04/17 07:06:57;;;;;;;5.20;3.20;;;15.00;59.70;;;;;;4353024;32;20476;-59
2021/04/17 07:09:23;;;;;;;5.43;2.45;;;14.80;59.00;;;;;;4352441;32;20170;-60
2021/04/17 07:11:50;;;;;;;5.45;3.00;;;15.20;60.00;;;;;;4352317;32;20531;-58
2021/04/17 07:14:19;;;;;;;6.00;3.62;;;15.30;58.20;;;;;;4376690;32;20093;-59
2021/04/17 07:17:02;;;;;;;7.62;2.70;;;15.10;58.10;;;;;;4363807;32;20114;-59
2021/04/17 07:19:45;;;;;;;6.62;3.33;;;15.60;55.60;;;;;;4377170;32;20065;-59
2021/04/17 07:22:19;;;;;;;5.00;2.60;;;15.60;56.60;;;;;;4351182;32;20066;-59
2021/04/17 07:24:46;;;;;;;5.50;2.85;;;15.70;56.20;;;;;;4375911;32;20145;-59
2021/04/17 07:33:52;;;;;;;8.18;3.33;;;15.80;54.10;;;;;;3837866;37;20047;-59
2021/04/17 07:37:07;;;;;;;9.60;3.37;;;15.90;54.30;;;;;;4384659;32;20054;-60
2021/04/17 07:39:39;;;;;;;6.00;3.03;;;16.00;54.20;;;;;;4390451;32;20096;-60
2021/04/17 07:42:11;;;;;;;8.63;3.70;;;16.00;52.60;;;;;;4353736;32;20077;-59
2021/04/17 07:44:43;;;;;;;4.22;2.72;;;16.10;52.60;;;;;;4365753;32;20089;-59
2021/04/17 07:47:10;;;;;;;13.60;3.45;;;15.90;51.70;;;;;;4353907;32;20154;-60
2021/04/17 07:49:39;;;;;;;5.62;2.40;;;16.10;51.40;;;;;;4353361;32;20118;-59
2021/04/17 07:52:13;;;;;;;4.62;2.65;;;16.40;52.60;;;;;;4365802;32;20202;-58
2021/04/17 07:55:04;;;;;;;5.53;3.00;;;16.60;50.00;;;;;;4365976;32;20576;-58
2021/04/17 07:57:47;;;;;;;8.15;2.85;;;16.30;49.90;;;;;;4357805;32;20585;-60
2021/04/17 08:00:16;;;;;;;9.80;3.12;;;16.40;50.20;;;;;;4377921;32;20514;-60
2021/04/17 08:02:47;;;;;;;6.78;2.72;;;16.40;50.00;;;;;;4353101;32;20472;-61
2021/04/17 08:05:14;;;;;;;8.85;3.10;;;17.20;51.60;;;;;;4365878;32;20097;-58
2021/04/17 08:07:40;;;;;;;8.38;3.20;;;17.10;51.10;;;;;;4365942;32;20066;-59
2021/04/17 08:10:10;;;;;;;2.97;1.92;;;17.20;48.30;;;;;;4380665;32;20080;-59
2021/04/17 08:12:39;;;;;;;3.15;2.28;;;17.20;49.70;;;;;;4363611;32;20138;-61
2021/04/17 08:15:11;;;;;;;5.72;2.95;;;17.20;49.30;;;;;;4366949;32;20464;-59
2021/04/17 08:17:41;;;;;;;8.23;3.00;;;17.10;49.00;;;;;;4351040;32;20062;-59
2021/04/17 08:20:09;;;;;;;4.72;2.87;;;17.40;49.40;;;;;;4375375;32;20088;-59
2021/04/17 08:22:35;;;;;;;6.82;2.10;;;17.60;47.90;;;;;;4350704;32;20105;-60
2021/04/17 08:25:02;;;;;;;6.18;2.90;;;18.20;47.00;;;;;;4375117;32;20078;-59
2021/04/17 08:27:32;;;;;;;7.12;2.30;;;17.40;46.70;;;;;;4374936;32;20150;-59
2021/04/17 08:29:59;;;;;;;5.60;2.72;;;17.70;46.90;;;;;;4344784;32;20170;-60
2021/04/17 08:32:32;;;;;;;6.40;3.03;;;17.70;46.70;;;;;;4335346;32;20083;-61
2021/04/17 08:35:05;;;;;;;6.80;2.90;;;17.80;46.40;;;;;;4371251;32;20061;-61
2021/04/17 08:37:33;;;;;;;5.15;2.97;;;17.80;46.80;;;;;;4351698;32;20448;-59
2021/04/17 08:40:01;;;;;;;13.05;3.60;;;18.50;45.90;;;;;;4351504;32;20073;-60
2021/04/17 08:42:46;;;;;;;5.47;2.70;;;18.00;45.80;;;;;;4361586;32;20058;-59
2021/04/17 08:45:20;;;;;;;5.15;2.95;;;18.20;46.00;;;;;;4333683;32;20154;-59
2021/04/17 08:47:58;;;;;;;6.47;3.00;;;18.00;45.50;;;;;;4334195;32;20078;-58
2021/04/17 08:50:32;;;;;;;7.68;2.83;;;18.40;45.90;;;;;;4334031;32;20184;-59
2021/04/17 08:53:15;;;;;;;6.75;2.30;;;18.10;45.10;;;;;;4345929;32;20071;-59
2021/04/17 08:55:48;;;;;;;5.05;2.33;;;18.50;43.60;;;;;;4358522;32;20153;-59
2021/04/17 08:58:24;;;;;;;6.70;2.70;;;18.50;42.70;;;;;;4370161;32;20071;-59
2021/04/17 09:00:51;;;;;;;5.95;2.95;;;19.00;43.00;;;;;;4358131;32;20058;-58
2021/04/17 09:03:40;;;;;;;6.97;2.92;;;18.70;42.40;;;;;;4369883;32;20066;-58
2021/04/17 09:06:23;;;;;;;5.75;2.72;;;18.80;42.40;;;;;;4357258;32;20058;-59
2021/04/17 09:09:19;;;;;;;4.82;2.72;;;18.60;42.60;;;;;;4370741;32;20074;-59
2021/04/17 09:11:47;;;;;;;6.53;2.70;;;19.10;42.70;;;;;;4368199;32;20078;-59
2021/04/17 09:14:32;;;;;;;5.00;3.03;;;18.90;41.30;;;;;;4343989;32;20175;-59
2021/04/17 09:17:03;;;;;;;7.57;3.35;;;18.90;41.80;;;;;;4357358;32;20134;-59
2021/04/17 09:19:40;;;;;;;10.35;3.22;;;19.00;41.90;;;;;;4333193;32;20074;-58
2021/04/17 09:22:30;;;;;;;7.57;3.20;;;19.40;41.80;;;;;;4353405;32;20456;-60
2021/04/17 09:24:59;;;;;;;4.82;2.62;;;19.70;40.50;;;;;;4366387;32;20074;-59
2021/04/17 09:27:33;;;;;;;11.02;3.15;;;19.30;40.60;;;;;;4343937;32;20082;-59
2021/04/17 09:30:07;;;;;;;6.53;3.03;;;19.50;40.90;;;;;;4344167;32;20521;-62
2021/04/17 09:32:38;;;;;;;6.43;3.10;;;19.40;40.60;;;;;;4327435;33;20086;-59
2021/04/17 09:35:34;;;;;;;4.18;2.42;;;20.00;39.30;;;;;;4349327;33;20062;-59
2021/04/17 09:38:15;;;;;;;2.90;2.50;;;20.40;37.30;;;;;;4331646;33;20508;-60
2021/04/17 09:40:53;;;;;;;8.57;3.37;;;19.70;39.80;;;;;;4341505;32;20082;-61
2021/04/17 09:43:35;;;;;;;8.88;2.95;;;19.50;39.00;;;;;;4325649;32;20066;-61
2021/04/17 09:46:14;;;;;;;9.23;2.65;;;19.70;38.70;;;;;;4324638;32;20246;-59
2021/04/17 09:48:42;;;;;;;7.43;3.00;;;20.10;38.00;;;;;;4336327;33;20067;-59
2021/04/17 09:51:25;;;;;;;6.93;2.62;;;20.20;37.80;;;;;;4334900;33;20074;-60
2021/04/17 09:53:53;;;;;;;7.30;2.67;;;19.80;37.80;;;;;;4322417;32;20063;-59
2021/04/17 09:56:34;;;;;;;6.95;2.75;;;20.10;37.80;;;;;;4309644;33;20078;-59
2021/04/17 09:59:13;;;;;;;9.98;3.03;;;20.40;36.80;;;;;;4334982;33;20488;-60
2021/04/17 10:01:52;;;;;;;5.32;2.22;;;19.90;37.00;;;;;;4322294;33;20071;-60
2021/04/17 10:04:18;;;;;;;6.10;3.12;;;20.30;36.90;;;;;;4322258;32;20056;-60
2021/04/17 10:06:56;;;;;;;6.35;2.97;;;20.20;37.80;;;;;;4321921;32;20099;-59
2021/04/17 10:09:23;;;;;;;4.70;2.47;;;20.30;36.60;;;;;;4322820;33;20090;-60
2021/04/17 10:11:49;;;;;;;3.30;2.37;;;20.70;36.10;;;;;;4333859;32;20187;-59
2021/04/17 10:14:17;;;;;;;5.43;2.78;;;21.10;35.00;;;;;;4314548;33;20086;-59
2021/04/17 10:16:46;;;;;;;13.75;4.05;;;20.60;35.10;;;;;;4307847;33;20135;-60
2021/04/17 10:19:17;;;;;;;9.45;3.30;;;20.50;35.80;;;;;;4296014;33;20085;-59
2021/04/17 10:21:46;;;;;;;4.18;2.10;;;20.60;35.40;;;;;;4307602;33;20079;-59
2021/04/17 10:24:32;;;;;;;6.43;2.25;;;21.10;35.00;;;;;;4310818;33;20110;-59
2021/04/17 10:27:05;;;;;;;5.35;3.40;;;20.90;34.40;;;;;;4320595;33;20075;-59
2021/04/17 10:29:46;;;;;;;7.50;2.95;;;20.60;34.20;;;;;;4310284;33;20086;-59
2021/04/17 10:32:28;;;;;;;7.43;3.30;;;21.00;34.10;;;;;;4323179;32;20086;-60
2021/04/17 10:35:00;;;;;;;8.43;3.50;;;20.60;34.70;;;;;;4323424;33;20094;-59
2021/04/17 10:37:26;;;;;;;7.75;2.80;;;20.80;34.10;;;;;;4346544;33;20063;-59
2021/04/17 10:40:04;;;;;;;7.50;3.25;;;20.90;34.30;;;;;;4336504;33;20058;-60
2021/04/17 10:42:48;;;;;;;7.30;3.00;;;20.90;34.40;;;;;;4351140;32;20058;-59
2021/04/17 10:45:17;;;;;;;7.40;3.83;;;21.30;31.90;;;;;;4346922;33;20071;-60
2021/04/17 10:47:43;;;;;;;8.02;3.35;;;21.00;32.40;;;;;;4334872;33;20150;-60
2021/04/17 10:50:22;;;;;;;6.82;4.05;;;21.10;32.40;;;;;;4309829;33;20075;-60
2021/04/17 10:53:06;;;;;;;8.10;2.83;;;21.30;32.90;;;;;;4309301;33;20095;-61
2021/04/17 10:55:43;;;;;;;8.57;3.50;;;21.30;31.10;;;;;;4309840;33;20468;-61
2021/04/17 10:58:31;;;;;;;10.10;4.15;;;21.30;31.60;;;;;;4321539;33;20445;-60
2021/04/17 11:01:15;;;;;;;6.62;3.00;;;21.00;32.40;;;;;;4320880;33;20142;-62
2021/04/17 11:03:51;;;;;;;8.48;3.92;;;21.00;31.30;;;;;;4298731;33;20527;-59
2021/04/17 11:06:19;;;;;;;10.95;3.62;;;21.30;30.20;;;;;;4309260;33;20239;-60
2021/04/17 11:08:46;;;;;;;4.97;3.25;;;21.20;31.00;;;;;;4308806;33;20086;-60
2021/04/17 11:11:18;;;;;;;5.53;2.95;;;21.40;30.60;;;;;;4309032;33;20082;-61
2021/04/17 11:13:45;;;;;;;6.07;3.30;;;21.40;32.10;;;;;;4295303;33;20156;-61
2021/04/17 11:16:14;;;;;;;7.65;3.33;;;21.10;30.70;;;;;;4306672;33;20085;-61
2021/04/17 11:18:42;;;;;;;5.00;2.65;;;21.40;30.70;;;;;;4306978;33;20062;-60
2021/04/17 11:21:11;;;;;;;5.80;2.75;;;21.70;30.40;;;;;;4318652;33;20546;-59
2021/04/17 11:23:59;;;;;;;6.03;2.85;;;22.10;29.30;;;;;;4330826;33;20079;-61
2021/04/17 11:26:28;;;;;;;6.12;2.97;;;22.40;28.20;;;;;;4331056;33;20086;-60
2021/04/17 11:29:00;;;;;;;6.20;3.60;;;21.40;29.50;;;;;;4319643;33;20126;-61
2021/04/17 11:31:33;;;;;;;9.70;3.83;;;21.40;30.00;;;;;;4309381;33;20106;-59
2021/04/17 11:34:01;;;;;;;9.52;3.60;;;21.80;29.90;;;;;;4345695;32;20067;-60
2021/04/17 11:36:30;;;;;;;10.07;3.50;;;22.00;29.70;;;;;;4306561;33;20063;-60
2021/04/17 11:38:56;;;;;;;6.53;3.08;;;21.60;29.20;;;;;;4306493;33;20083;-59
2021/04/17 11:41:24;;;;;;;10.48;3.78;;;21.80;29.20;;;;;;4330369;33;20509;-60
2021/04/17 11:43:50;;;;;;;6.53;3.20;;;21.50;29.00;;;;;;4331046;33;20563;-60
2021/04/17 11:46:17;;;;;;;6.50;3.47;;;21.70;28.60;;;;;;4319077;33;20134;-60
2021/04/17 11:48:45;;;;;;;3.80;2.25;;;21.80;28.60;;;;;;4318486;33;20075;-59
2021/04/17 11:51:11;;;;;;;8.65;3.33;;;22.10;28.70;;;;;;4306365;33;20169;-65
2021/04/17 11:53:38;;;;;;;10.13;3.85;;;21.80;28.40;;;;;;4318584;33;20079;-61
2021/04/17 11:57:04;;;;;;;5.25;3.42;;;21.70;28.60;;;;;;4330995;33;20074;-60
2021/04/17 12:00:31;;;;;;;12.02;4.50;;;21.70;28.70;;;;;;4332401;33;20171;-60
2021/04/17 12:03:58;;;;;;;7.00;3.62;;;21.10;29.20;;;;;;4332226;33;20162;-59
2021/04/17 12:06:28;;;;;;;11.12;4.18;;;21.10;28.10;;;;;;4332173;33;20094;-60
2021/04/17 12:08:58;;;;;;;8.73;3.22;;;21.40;27.80;;;;;;4318040;33;20063;-59
2021/04/17 12:11:25;;;;;;;7.03;3.65;;;21.30;28.30;;;;;;4318614;33;20091;-60
2021/04/17 12:13:51;;;;;;;7.22;3.80;;;21.40;27.90;;;;;;4330037;33;20083;-59
2021/04/17 12:16:18;;;;;;;8.38;3.20;;;21.20;28.00;;;;;;4330196;33;20163;-60
2021/04/17 12:18:45;;;;;;;6.95;3.25;;;21.20;27.70;;;;;;4331916;33;20074;-60
2021/04/17 12:21:11;;;;;;;7.53;3.37;;;21.30;27.80;;;;;;4332644;33;20146;-60
2021/04/17 12:23:38;;;;;;;8.27;3.72;;;21.30;27.50;;;;;;4334223;33;20067;-61
2021/04/17 12:26:04;;;;;;;9.05;3.80;;;21.20;27.80;;;;;;4333054;33;20052;-60
2021/04/17 12:28:30;;;;;;;15.18;4.47;;;21.10;27.80;;;;;;4320983;33;20063;-60
2021/04/17 12:30:58;;;;;;;9.60;4.30;;;21.20;27.60;;;;;;4335127;33;20457;-60
2021/04/17 12:33:27;;;;;;;9.32;4.10;;;21.40;27.70;;;;;;4323423;33;20142;-60
2021/04/17 12:35:54;;;;;;;8.20;3.78;;;21.10;27.50;;;;;;4319873;33;20165;-60
2021/04/17 12:38:20;;;;;;;7.28;3.72;;;21.20;27.50;;;;;;4335421;33;20089;-59
2021/04/17 12:40:50;;;;;;;8.82;3.87;;;21.10;27.20;;;;;;4322863;33;20078;-60
2021/04/17 12:43:16;;;;;;;9.55;4.10;;;21.10;27.20;;;;;;4323616;33;20213;-60
2021/04/17 12:45:42;;;;;;;6.28;3.55;;;21.10;27.50;;;;;;4335025;33;20085;-60
2021/04/17 12:48:09;;;;;;;9.07;4.43;;;21.00;27.50;;;;;;4335575;33;20066;-59
2021/04/17 12:50:36;;;;;;;6.87;3.50;;;21.00;27.50;;;;;;4335725;33;20082;-61
2021/04/17 12:53:02;;;;;;;8.48;3.58;;;21.10;27.10;;;;;;4310574;33;20067;-61
2021/04/17 12:55:29;;;;;;;9.70;4.05;;;21.00;27.00;;;;;;4322502;33;20464;-61
2021/04/17 12:57:55;;;;;;;12.98;3.67;;;20.90;27.60;;;;;;4322836;33;20109;-60
2021/04/17 13:00:23;;;;;;;6.35;3.35;;;21.00;27.50;;;;;;4322642;33;20063;-59
2021/04/17 13:02:49;;;;;;;9.48;3.83;;;20.90;27.10;;;;;;4335842;33;20071;-60
2021/04/17 13:05:15;;;;;;;11.93;3.90;;;20.70;27.30;;;;;;4336170;33;20077;-61
2021/04/17 13:07:42;;;;;;;11.00;3.28;;;20.80;27.20;;;;;;4350201;33;20063;-61
2021/04/17 13:10:09;;;;;;;7.15;3.22;;;21.00;27.10;;;;;;4323617;33;20474;-60
2021/04/17 13:12:35;;;;;;;5.70;2.30;;;20.90;27.10;;;;;;4335203;33;20070;-60